Time;durP1;ratioP1;P1;durP2;ratioP2;P2;SDS_P1;SDS_P2;PMS_P1;PMS_P2;Temp;Humidity;BMP_temperature;BMP_pressure;BME280_temperature;BME280_humidity;BME280_pressure;Samples;Min_cycle;Max_cycle;Signal;HPM_P1;HPM_P2
2021/09/23 00:02:15;;;;;;;11.23;6.07;;;;;;;;;;6243121;28;20037;-83
2021/09/23 00:05:29;;;;;;;12.23;7.13;;;;;;;;;;6241429;28;20052;-83
2021/09/23 00:08:31;;;;;;;15.57;7.30;;;;;;;;;;6241514;28;20410;-85
2021/09/23 00:11:33;;;;;;;15.98;7.07;;;;;;;;;;6271332;28;20076;-83
2021/09/23 00:14:34;;;;;;;16.00;7.75;;;;;;;;;;6237347;28;20048;-84
2021/09/23 00:17:36;;;;;;;15.82;7.82;;;;;;;;;;6238632;28;20044;-83
2021/09/23 00:20:41;;;;;;;18.40;8.25;;;;;;;;;;6238153;28;20049;-83
2021/09/23 00:23:45;;;;;;;17.45;8.27;;;;;;;;;;6234283;28;20526;-85
2021/09/23 00:26:47;;;;;;;18.77;7.97;;;;;;;;;;6218471;28;20701;-83
2021/09/23 00:29:49;;;;;;;18.75;8.45;;;;;;;;;;6233584;28;20520;-83
2021/09/23 00:32:51;;;;;;;18.33;7.88;;;;;;;;;;6232093;28;20128;-84
2021/09/23 00:35:52;;;;;;;22.13;9.57;;;;;;;;;;6235016;28;20061;-83
2021/09/23 00:38:54;;;;;;;20.38;8.45;;;;;;;;;;6232844;28;20049;-84
2021/09/23 00:41:57;;;;;;;18.77;9.20;;;;;;;;;;6232289;28;20057;-84
2021/09/23 00:45:01;;;;;;;16.35;8.00;;;;;;;;;;6232786;28;20041;-84
2021/09/23 00:48:03;;;;;;;17.42;7.63;;;;;;;;;;6231844;28;20127;-85
2021/09/23 00:51:07;;;;;;;17.85;8.23;;;;;;;;;;6233182;28;20038;-84
2021/09/23 00:54:09;;;;;;;33.55;9.30;;;;;;;;;;6236232;28;20042;-86
2021/09/23 00:57:15;;;;;;;42.47;10.40;;;;;;;;;;6220577;28;20052;-84
2021/09/23 01:00:18;;;;;;;19.02;8.23;;;;;;;;;;6233496;28;20041;-85
2021/09/23 01:03:35;;;;;;;27.95;9.40;;;;;;;;;;6232507;28;20049;-85
2021/09/23 01:06:37;;;;;;;;;;;;;;;;;;6232967;28;20053;-83
2021/09/23 01:09:48;;;;;;;24.98;7.93;;;;;;;;;;6215459;28;19925;-85
2021/09/23 01:12:50;;;;;;;23.92;7.25;;;;;;;;;;6212644;28;20125;-85
2021/09/23 01:15:52;;;;;;;17.00;6.97;;;;;;;;;;6231481;28;20046;-84
2021/09/23 01:19:00;;;;;;;23.90;7.50;;;;;;;;;;6216929;28;20050;-83
2021/09/23 01:22:05;;;;;;;15.00;6.85;;;;;;;;;;6254721;28;20061;-83
2021/09/23 01:25:27;;;;;;;12.02;6.22;;;;;;;;;;6246964;28;21833;-85
2021/09/23 01:28:29;;;;;;;15.70;7.78;;;;;;;;;;6244858;28;20052;-85
2021/09/23 01:31:35;;;;;;;14.60;6.90;;;;;;;;;;6242103;28;20144;-85
2021/09/23 01:34:39;;;;;;;13.25;6.90;;;;;;;;;;6241169;28;20046;-85
2021/09/23 01:37:41;;;;;;;24.27;7.05;;;;;;;;;;6242127;28;20060;-85
2021/09/23 01:40:43;;;;;;;12.70;7.10;;;;;;;;;;6229792;28;20038;-84
2021/09/23 01:43:46;;;;;;;12.35;6.00;;;;;;;;;;6239936;28;20045;-85
2021/09/23 01:46:48;;;;;;;16.63;6.90;;;;;;;;;;6231575;28;20048;-84
2021/09/23 01:49:56;;;;;;;17.23;6.70;;;;;;;;;;6241538;28;20099;-85
2021/09/23 01:53:01;;;;;;;11.20;6.10;;;;;;;;;;6241607;28;20092;-83
2021/09/23 01:56:03;;;;;;;11.65;5.70;;;;;;;;;;6239942;28;20068;-84
2021/09/23 01:59:05;;;;;;;10.80;6.60;;;;;;;;;;6239163;28;20202;-85
2021/09/23 02:02:07;;;;;;;10.43;6.00;;;;;;;;;;6270322;28;20053;-85
2021/09/23 02:05:10;;;;;;;11.85;6.13;;;;;;;;;;6225542;28;20122;-85
2021/09/23 02:08:12;;;;;;;15.70;6.38;;;;;;;;;;6259630;28;20500;-85
2021/09/23 02:11:14;;;;;;;13.80;5.68;;;;;;;;;;6240018;28;20124;-85
2021/09/23 02:14:23;;;;;;;15.88;7.00;;;;;;;;;;6218341;28;20061;-85
2021/09/23 02:17:25;;;;;;;10.77;6.70;;;;;;;;;;6241138;28;20044;-85
2021/09/23 02:20:31;;;;;;;38.58;7.00;;;;;;;;;;6227395;28;20052;-85
2021/09/23 02:23:35;;;;;;;11.45;6.30;;;;;;;;;;6242634;28;20049;-85
2021/09/23 02:26:36;;;;;;;21.45;6.00;;;;;;;;;;6226944;28;20407;-85
2021/09/23 02:29:38;;;;;;;9.60;6.43;;;;;;;;;;6246401;28;20092;-85
2021/09/23 02:32:40;;;;;;;12.07;6.18;;;;;;;;;;6259962;28;20034;-84
2021/09/23 02:35:41;;;;;;;12.35;5.90;;;;;;;;;;6262786;28;20041;-83
2021/09/23 02:38:44;;;;;;;10.63;6.38;;;;;;;;;;6240214;28;20045;-84
2021/09/23 02:41:46;;;;;;;17.60;6.03;;;;;;;;;;6221913;28;20053;-83
2021/09/23 02:44:48;;;;;;;15.20;6.07;;;;;;;;;;6220014;28;20145;-84
2021/09/23 02:47:49;;;;;;;9.25;5.50;;;;;;;;;;6237212;28;20056;-84
2021/09/23 02:50:51;;;;;;;26.17;5.97;;;;;;;;;;6237783;28;20076;-83
2021/09/23 02:53:53;;;;;;;38.20;6.65;;;;;;;;;;6235488;28;20041;-83
2021/09/23 02:56:55;;;;;;;16.23;5.20;;;;;;;;;;6210994;28;20168;-83
2021/09/23 02:59:56;;;;;;;19.90;6.28;;;;;;;;;;6234754;28;20119;-85
2021/09/23 03:02:58;;;;;;;14.60;5.80;;;;;;;;;;6232571;28;20100;-83
2021/09/23 03:06:00;;;;;;;21.63;5.85;;;;;;;;;;6235600;28;20137;-83
2021/09/23 03:09:02;;;;;;;10.18;6.10;;;;;;;;;;6223736;28;20052;-83
2021/09/23 03:12:05;;;;;;;15.38;5.93;;;;;;;;;;6211229;28;20566;-85
2021/09/23 03:15:07;;;;;;;14.38;6.15;;;;;;;;;;6235892;28;20065;-83
2021/09/23 03:18:09;;;;;;;22.63;5.75;;;;;;;;;;6234699;28;20041;-83
2021/09/23 03:21:12;;;;;;;15.27;5.65;;;;;;;;;;6237450;28;20041;-84
2021/09/23 03:24:13;;;;;;;16.67;5.63;;;;;;;;;;6238340;28;20052;-83
2021/09/23 03:27:15;;;;;;;32.25;6.05;;;;;;;;;;6236762;28;20444;-84
2021/09/23 03:30:17;;;;;;;9.55;5.40;;;;;;;;;;6236158;28;20044;-85
2021/09/23 03:33:19;;;;;;;15.75;5.57;;;;;;;;;;6254346;28;20091;-84
2021/09/23 03:36:21;;;;;;;13.82;4.90;;;;;;;;;;6241420;28;20048;-83
2021/09/23 03:39:23;;;;;;;10.47;4.63;;;;;;;;;;6237804;28;20176;-85
2021/09/23 03:42:25;;;;;;;12.93;5.63;;;;;;;;;;6238030;28;20041;-83
2021/09/23 03:45:26;;;;;;;10.48;5.68;;;;;;;;;;6236779;28;20049;-84
2021/09/23 03:48:28;;;;;;;9.13;5.40;;;;;;;;;;6222144;28;20042;-84
2021/09/23 03:51:30;;;;;;;8.35;5.28;;;;;;;;;;6238374;28;20120;-84
2021/09/23 03:54:37;;;;;;;7.10;4.60;;;;;;;;;;6237625;28;20125;-84
2021/09/23 03:57:39;;;;;;;10.38;5.40;;;;;;;;;;6221203;28;20041;-83
2021/09/23 04:00:40;;;;;;;26.00;6.03;;;;;;;;;;6239453;28;20051;-85
2021/09/23 04:03:43;;;;;;;41.87;6.40;;;;;;;;;;6220369;28;20053;-84
2021/09/23 04:06:45;;;;;;;21.70;5.37;;;;;;;;;;6227741;28;20168;-83
2021/09/23 04:09:50;;;;;;;6.78;4.82;;;;;;;;;;6241522;28;20046;-83
2021/09/23 04:12:55;;;;;;;10.65;5.07;;;;;;;;;;6273010;28;20216;-83
2021/09/23 04:15:57;;;;;;;11.75;5.50;;;;;;;;;;6221336;28;20084;-85
2021/09/23 04:19:00;;;;;;;42.78;7.82;;;;;;;;;;6255158;28;20053;-83
2021/09/23 04:22:02;;;;;;;15.68;5.35;;;;;;;;;;6246090;28;20796;-85
2021/09/23 04:25:05;;;;;;;12.27;5.43;;;;;;;;;;6213172;28;20049;-84
2021/09/23 04:28:07;;;;;;;10.02;5.90;;;;;;;;;;6245294;28;20060;-84
2021/09/23 04:31:09;;;;;;;9.20;5.40;;;;;;;;;;6239033;28;20052;-85
2021/09/23 04:34:11;;;;;;;29.75;6.95;;;;;;;;;;6243213;28;20053;-85
2021/09/23 04:37:12;;;;;;;25.00;5.68;;;;;;;;;;6242143;28;20391;-85
2021/09/23 04:40:14;;;;;;;13.18;5.57;;;;;;;;;;6239913;28;20068;-82
2021/09/23 04:43:16;;;;;;;9.27;5.05;;;;;;;;;;6223368;28;20049;-84
2021/09/23 04:46:24;;;;;;;17.15;5.55;;;;;;;;;;6239513;28;20046;-84
2021/09/23 04:49:31;;;;;;;;;;;;;;;;;;6273656;28;20052;-84
2021/09/23 04:52:35;;;;;;;10.15;5.07;;;;;;;;;;6216210;28;19922;-84
2021/09/23 04:55:38;;;;;;;10.82;5.38;;;;;;;;;;6236619;28;20046;-83
2021/09/23 04:58:40;;;;;;;10.20;5.20;;;;;;;;;;6251141;28;20045;-84
2021/09/23 05:01:42;;;;;;;11.45;4.82;;;;;;;;;;6250784;28;20041;-84
2021/09/23 05:04:45;;;;;;;7.95;4.82;;;;;;;;;;6224560;28;20554;-85
2021/09/23 05:07:47;;;;;;;14.75;5.13;;;;;;;;;;6224479;28;20049;-82
2021/09/23 05:10:50;;;;;;;9.60;4.68;;;;;;;;;;6222473;28;20132;-83
2021/09/23 05:13:53;;;;;;;9.43;4.75;;;;;;;;;;6256622;28;20503;-83
2021/09/23 05:16:56;;;;;;;;;;;;;;;;;;6242888;28;20045;-82
2021/09/23 05:19:58;;;;;;;6.75;3.63;;;;;;;;;;6244434;28;19921;-82
2021/09/23 05:22:59;;;;;;;6.60;4.18;;;;;;;;;;6240166;28;20045;-81
2021/09/23 05:26:01;;;;;;;22.48;5.28;;;;;;;;;;6243930;28;20116;-82
2021/09/23 05:29:03;;;;;;;18.02;5.30;;;;;;;;;;6243159;28;20045;-81
2021/09/23 05:32:05;;;;;;;8.45;4.95;;;;;;;;;;6243111;28;20049;-80
2021/09/23 05:35:08;;;;;;;97.55;10.18;;;;;;;;;;6243732;28;20045;-81
2021/09/23 05:38:09;;;;;;;27.52;5.50;;;;;;;;;;6245247;28;20049;-81
2021/09/23 05:41:11;;;;;;;29.10;6.63;;;;;;;;;;6237311;28;20061;-82
2021/09/23 05:44:16;;;;;;;19.15;5.88;;;;;;;;;;6241911;28;20049;-79
2021/09/23 05:47:18;;;;;;;25.17;6.38;;;;;;;;;;6241482;28;20467;-80
2021/09/23 05:50:20;;;;;;;30.30;5.95;;;;;;;;;;6243381;28;20471;-82
2021/09/23 05:53:21;;;;;;;11.45;5.68;;;;;;;;;;6242840;28;20100;-81
2021/09/23 05:56:23;;;;;;;21.98;5.57;;;;;;;;;;6241067;28;20045;-81
2021/09/23 05:59:26;;;;;;;7.45;4.78;;;;;;;;;;6248384;28;20057;-79
2021/09/23 06:02:28;;;;;;;8.35;4.72;;;;;;;;;;6250383;28;20049;-80
2021/09/23 06:05:31;;;;;;;5.95;4.00;;;;;;;;;;6243494;28;20087;-79
2021/09/23 06:08:33;;;;;;;25.00;4.80;;;;;;;;;;6247448;28;20064;-82
2021/09/23 06:11:37;;;;;;;7.00;5.13;;;;;;;;;;6242808;28;20041;-81
2021/09/23 06:14:39;;;;;;;18.40;5.05;;;;;;;;;;6244132;28;20049;-82
2021/09/23 06:17:41;;;;;;;22.25;6.10;;;;;;;;;;6220024;28;20077;-81
2021/09/23 06:20:47;;;;;;;9.17;5.23;;;;;;;;;;6243375;28;20499;-81
2021/09/23 06:23:49;;;;;;;19.00;6.32;;;;;;;;;;6238698;28;20452;-81
2021/09/23 06:26:50;;;;;;;13.40;6.00;;;;;;;;;;6242830;28;20045;-81
2021/09/23 06:29:52;;;;;;;16.38;6.82;;;;;;;;;;6242506;28;20060;-83
2021/09/23 06:32:54;;;;;;;22.65;5.10;;;;;;;;;;6216198;28;20060;-80
2021/09/23 06:35:55;;;;;;;27.80;6.72;;;;;;;;;;6247314;28;20048;-81
2021/09/23 06:38:57;;;;;;;11.02;5.93;;;;;;;;;;6231498;28;20128;-80
2021/09/23 06:41:59;;;;;;;12.95;5.60;;;;;;;;;;6243890;28;20053;-82
2021/09/23 06:45:01;;;;;;;8.48;5.53;;;;;;;;;;6244859;28;20057;-83
2021/09/23 06:48:03;;;;;;;8.05;4.93;;;;;;;;;;6242411;28;20064;-80
2021/09/23 06:51:04;;;;;;;8.90;5.20;;;;;;;;;;6247072;28;20049;-81
2021/09/23 06:54:07;;;;;;;7.85;4.95;;;;;;;;;;6245552;28;20405;-83
2021/09/23 06:57:09;;;;;;;8.85;4.82;;;;;;;;;;6246311;28;20483;-82
2021/09/23 07:00:31;;;;;;;8.10;4.85;;;;;;;;;;6192022;28;20121;-82
2021/09/23 07:04:10;;;;;;;15.23;5.18;;;;;;;;;;6228933;28;20061;-81
2021/09/23 07:07:38;;;;;;;9.20;5.22;;;;;;;;;;6242853;28;20045;-82
2021/09/23 07:10:40;;;;;;;10.18;5.70;;;;;;;;;;6241928;28;20045;-81
2021/09/23 07:13:42;;;;;;;14.75;8.32;;;;;;;;;;6246590;28;20037;-80
2021/09/23 07:16:43;;;;;;;17.35;8.07;;;;;;;;;;6245716;28;20053;-81
2021/09/23 07:19:45;;;;;;;9.07;5.93;;;;;;;;;;6247498;28;20056;-81
2021/09/23 07:22:48;;;;;;;9.70;5.65;;;;;;;;;;6249238;28;20737;-81
2021/09/23 07:25:52;;;;;;;8.25;5.55;;;;;;;;;;6244867;28;20088;-81
2021/09/23 07:28:53;;;;;;;12.90;6.85;;;;;;;;;;6242943;28;20422;-80
2021/09/23 07:31:56;;;;;;;12.02;7.05;;;;;;;;;;6227739;28;20054;-80
2021/09/23 07:34:57;;;;;;;11.07;7.07;;;;;;;;;;6237094;28;20049;-82
2021/09/23 07:37:59;;;;;;;10.23;6.47;;;;;;;;;;6205649;28;20073;-81
2021/09/23 07:41:01;;;;;;;13.50;6.90;;;;;;;;;;6278375;28;20053;-81
2021/09/23 07:44:04;;;;;;;12.20;6.95;;;;;;;;;;6246553;28;20045;-80
2021/09/23 07:47:06;;;;;;;10.13;6.82;;;;;;;;;;6247632;28;20104;-81
2021/09/23 07:50:08;;;;;;;10.63;5.90;;;;;;;;;;6249164;28;20123;-81
2021/09/23 07:53:10;;;;;;;13.20;8.55;;;;;;;;;;6248353;28;20063;-80
2021/09/23 07:56:12;;;;;;;13.80;7.82;;;;;;;;;;6247208;28;20042;-80
2021/09/23 07:59:14;;;;;;;16.30;7.97;;;;;;;;;;6249137;28;20042;-81
2021/09/23 08:02:16;;;;;;;16.15;7.88;;;;;;;;;;6228514;28;20072;-81
2021/09/23 08:05:18;;;;;;;18.03;8.63;;;;;;;;;;6249366;28;20572;-81
2021/09/23 08:08:22;;;;;;;18.25;8.90;;;;;;;;;;6248543;28;20179;-82
2021/09/23 08:11:25;;;;;;;18.25;8.43;;;;;;;;;;6249099;28;20069;-80
2021/09/23 08:14:32;;;;;;;15.68;8.55;;;;;;;;;;6249861;28;20045;-81
2021/09/23 08:17:47;;;;;;;16.30;8.50;;;;;;;;;;6249200;28;20069;-82
2021/09/23 08:21:12;;;;;;;20.17;7.60;;;;;;;;;;6250029;28;20041;-82
2021/09/23 08:24:14;;;;;;;16.92;7.57;;;;;;;;;;6249158;28;20053;-82
2021/09/23 08:27:17;;;;;;;12.98;7.32;;;;;;;;;;6258264;28;20041;-81
2021/09/23 08:30:19;;;;;;;19.00;7.70;;;;;;;;;;6254429;28;20061;-83
2021/09/23 08:33:23;;;;;;;13.77;6.47;;;;;;;;;;6278082;28;20045;-81
2021/09/23 08:36:25;;;;;;;14.20;6.43;;;;;;;;;;6246307;28;20120;-81
2021/09/23 08:39:27;;;;;;;14.88;6.45;;;;;;;;;;6227221;28;20498;-82
2021/09/23 08:42:29;;;;;;;14.63;6.57;;;;;;;;;;6244271;28;20037;-81
2021/09/23 08:45:31;;;;;;;12.80;5.60;;;;;;;;;;6276623;28;20049;-83
2021/09/23 08:48:34;;;;;;;8.48;4.55;;;;;;;;;;6245523;28;20160;-82
2021/09/23 08:51:37;;;;;;;8.57;4.28;;;;;;;;;;6246369;28;20037;-83
2021/09/23 08:54:39;;;;;;;8.50;4.25;;;;;;;;;;6247069;28;20087;-83
2021/09/23 08:57:40;;;;;;;8.57;4.40;;;;;;;;;;6245029;28;20061;-83
2021/09/23 09:01:07;;;;;;;5.85;3.22;;;;;;;;;;6244790;28;20129;-82
2021/09/23 09:04:51;;;;;;;2.97;2.33;;;;;;;;;;6239505;28;20041;-81
2021/09/23 09:08:18;;;;;;;4.63;2.50;;;;;;;;;;6277501;28;20146;-82
2021/09/23 09:11:41;;;;;;;5.10;2.97;;;;;;;;;;6276571;28;20057;-82
2021/09/23 09:14:43;;;;;;;4.97;2.92;;;;;;;;;;6241478;28;20051;-82
2021/09/23 09:17:45;;;;;;;4.40;3.00;;;;;;;;;;6226281;28;20375;-81
2021/09/23 09:21:01;;;;;;;2.92;2.53;;;;;;;;;;6244215;28;20068;-83
2021/09/23 09:24:04;;;;;;;2.40;2.20;;;;;;;;;;6234663;28;20054;-85
2021/09/23 09:27:23;;;;;;;4.72;2.45;;;;;;;;;;6225508;28;20050;-83
2021/09/23 09:30:28;;;;;;;5.57;2.80;;;;;;;;;;6257950;28;20046;-86
2021/09/23 09:33:40;;;;;;;5.30;2.80;;;;;;;;;;6238850;28;20049;-82
2021/09/23 09:36:51;;;;;;;6.13;2.70;;;;;;;;;;6218019;28;20053;-83
2021/09/23 09:39:57;;;;;;;3.47;1.90;;;;;;;;;;6209557;28;20045;-84
2021/09/23 09:43:04;;;;;;;3.03;2.08;;;;;;;;;;6201749;28;20388;-83
2021/09/23 09:46:26;;;;;;;2.42;1.60;;;;;;;;;;6235681;28;20053;-83
2021/09/23 09:49:30;;;;;;;2.92;1.23;;;;;;;;;;6202819;28;20053;-83
2021/09/23 09:52:32;;;;;;;3.03;1.70;;;;;;;;;;6235318;28;20105;-83
2021/09/23 09:55:45;;;;;;;2.53;1.75;;;;;;;;;;6244555;28;20471;-83
2021/09/23 09:59:14;;;;;;;2.17;1.50;;;;;;;;;;6239738;28;20053;-83
2021/09/23 10:02:22;;;;;;;2.97;1.83;;;;;;;;;;6240055;28;20045;-82
2021/09/23 10:05:27;;;;;;;1.95;1.30;;;;;;;;;;6241301;28;20041;-82
2021/09/23 10:08:31;;;;;;;2.20;1.52;;;;;;;;;;6241688;28;20628;-83
2021/09/23 10:11:35;;;;;;;3.28;1.20;;;;;;;;;;6236139;28;20038;-81
2021/09/23 10:14:39;;;;;;;1.90;1.30;;;;;;;;;;6223496;28;20052;-82
2021/09/23 10:17:46;;;;;;;1.83;1.10;;;;;;;;;;6241117;28;20049;-82
2021/09/23 10:20:48;;;;;;;2.33;1.33;;;;;;;;;;6242846;28;20868;-81
2021/09/23 10:23:51;;;;;;;3.47;1.20;;;;;;;;;;6241094;28;20124;-84
2021/09/23 10:26:54;;;;;;;1.83;1.50;;;;;;;;;;6226329;28;20042;-84
2021/09/23 10:29:57;;;;;;;2.65;1.40;;;;;;;;;;6226928;28;20048;-81
2021/09/23 10:33:01;;;;;;;1.95;1.38;;;;;;;;;;6252045;28;20711;-83
2021/09/23 10:36:04;;;;;;;1.50;1.30;;;;;;;;;;6200729;28;20046;-84
2021/09/23 10:39:09;;;;;;;1.52;1.35;;;;;;;;;;6215858;28;21080;-82
2021/09/23 10:42:19;;;;;;;1.80;1.50;;;;;;;;;;6214813;28;20045;-82
2021/09/23 10:45:27;;;;;;;1.58;1.30;;;;;;;;;;6230319;28;20049;-81
2021/09/23 10:48:33;;;;;;;1.77;1.42;;;;;;;;;;6238403;28;20041;-83
2021/09/23 10:51:35;;;;;;;1.67;1.33;;;;;;;;;;6219736;28;20049;-84
2021/09/23 10:54:44;;;;;;;1.85;1.13;;;;;;;;;;6213591;28;20049;-82
2021/09/23 10:57:48;;;;;;;3.58;1.50;;;;;;;;;;6247356;28;20520;-85
2021/09/23 11:00:50;;;;;;;2.25;1.30;;;;;;;;;;6226448;28;20080;-82
2021/09/23 11:03:56;;;;;;;2.17;1.15;;;;;;;;;;6236004;28;20176;-81
2021/09/23 11:07:01;;;;;;;1.58;1.30;;;;;;;;;;6247262;28;20042;-83
2021/09/23 11:10:11;;;;;;;1.55;1.33;;;;;;;;;;6232465;28;20049;-83
2021/09/23 11:13:16;;;;;;;1.90;1.25;;;;;;;;;;6237156;28;20041;-83
2021/09/23 11:16:20;;;;;;;1.30;1.17;;;;;;;;;;6219354;28;20057;-82
2021/09/23 11:19:25;;;;;;;2.03;1.40;;;;;;;;;;6226502;28;20180;-82
2021/09/23 11:22:41;;;;;;;2.65;1.40;;;;;;;;;;6219580;28;20045;-82
2021/09/23 11:25:51;;;;;;;1.63;1.33;;;;;;;;;;6218998;28;20119;-81
2021/09/23 11:28:57;;;;;;;3.08;1.45;;;;;;;;;;6236948;28;20048;-83
2021/09/23 11:32:00;;;;;;;1.75;1.50;;;;;;;;;;6217029;28;20041;-82
2021/09/23 11:35:05;;;;;;;3.13;1.38;;;;;;;;;;6236684;28;20056;-81
2021/09/23 11:38:10;;;;;;;1.95;1.35;;;;;;;;;;6236534;28;20387;-83
2021/09/23 11:41:14;;;;;;;1.90;1.38;;;;;;;;;;6235658;28;20068;-85
2021/09/23 11:44:24;;;;;;;1.77;1.50;;;;;;;;;;6234841;28;20038;-81
2021/09/23 11:47:26;;;;;;;1.75;1.40;;;;;;;;;;6234607;28;20046;-81
2021/09/23 11:50:39;;;;;;;1.70;1.60;;;;;;;;;;6234463;28;20042;-83
2021/09/23 11:53:42;;;;;;;1.58;1.30;;;;;;;;;;6230050;28;20045;-83
2021/09/23 11:56:44;;;;;;;1.60;1.50;;;;;;;;;;6228594;28;20042;-83
2021/09/23 11:59:52;;;;;;;;;;;;;;;;;;6250287;28;20049;-81
2021/09/23 12:02:55;;;;;;;2.95;1.65;;;;;;;;;;6234054;28;19925;-82
2021/09/23 12:06:01;;;;;;;1.60;1.40;;;;;;;;;;6217536;28;20503;-81
2021/09/23 12:09:09;;;;;;;3.00;1.50;;;;;;;;;;6239769;28;20058;-82
2021/09/23 12:12:11;;;;;;;3.20;1.40;;;;;;;;;;6236985;28;20052;-83
2021/09/23 12:15:20;;;;;;;2.15;1.40;;;;;;;;;;6246448;28;20076;-81
2021/09/23 12:18:24;;;;;;;1.80;1.17;;;;;;;;;;6238140;28;20692;-83
2021/09/23 12:21:28;;;;;;;5.53;1.40;;;;;;;;;;6246498;28;20403;-82
2021/09/23 12:24:40;;;;;;;2.28;1.13;;;;;;;;;;6245311;28;20057;-84
2021/09/23 12:27:57;;;;;;;2.33;1.40;;;;;;;;;;6244920;28;20561;-83
2021/09/23 12:31:04;;;;;;;1.30;1.20;;;;;;;;;;6241166;28;20054;-86
2021/09/23 12:34:12;;;;;;;1.70;1.35;;;;;;;;;;6238626;28;20049;-84
2021/09/23 12:37:15;;;;;;;1.75;1.30;;;;;;;;;;6261706;28;20054;-81
2021/09/23 12:40:39;;;;;;;1.27;1.17;;;;;;;;;;6231473;28;20041;-80
2021/09/23 12:43:42;;;;;;;;;;;;;;;;;;6236629;28;20076;-83
2021/09/23 12:46:45;;;;;;;2.85;1.33;;;;;;;;;;6269780;28;19920;-84
2021/09/23 12:49:50;;;;;;;1.60;1.33;;;;;;;;;;6240883;28;20060;-81
2021/09/23 12:52:54;;;;;;;3.05;1.30;;;;;;;;;;6240422;28;20041;-82
2021/09/23 12:56:04;;;;;;;1.95;1.70;;;;;;;;;;6265281;28;20045;-79
2021/09/23 12:59:23;;;;;;;2.60;1.60;;;;;;;;;;6259543;28;20045;-82
2021/09/23 13:02:25;;;;;;;2.45;1.50;;;;;;;;;;6233275;28;20064;-81
2021/09/23 13:05:28;;;;;;;2.58;1.70;;;;;;;;;;6248050;28;20419;-83
2021/09/23 13:08:42;;;;;;;2.38;1.70;;;;;;;;;;6248281;28;20041;-81
2021/09/23 13:11:46;;;;;;;1.73;1.40;;;;;;;;;;6239142;28;20037;-81
2021/09/23 13:15:23;;;;;;;2.55;1.60;;;;;;;;;;6212303;28;20042;-81
2021/09/23 13:18:28;;;;;;;3.03;1.67;;;;;;;;;;6245930;28;20048;-81
2021/09/23 13:21:42;;;;;;;2.08;1.63;;;;;;;;;;6208390;28;20106;-80
2021/09/23 13:24:43;;;;;;;2.05;1.70;;;;;;;;;;6230139;28;20053;-81
2021/09/23 13:27:47;;;;;;;1.50;1.40;;;;;;;;;;6246481;28;20051;-81
2021/09/23 13:30:50;;;;;;;1.67;1.58;;;;;;;;;;6248360;28;20049;-80
2021/09/23 13:33:55;;;;;;;1.73;1.63;;;;;;;;;;6234203;28;20394;-80
2021/09/23 13:36:57;;;;;;;3.22;1.60;;;;;;;;;;6237387;28;20065;-81
2021/09/23 13:39:59;;;;;;;3.15;1.50;;;;;;;;;;6237447;28;20045;-81
2021/09/23 13:43:09;;;;;;;3.10;1.52;;;;;;;;;;6229108;28;20049;-81
2021/09/23 13:46:24;;;;;;;3.15;1.80;;;;;;;;;;6231678;28;20485;-80
2021/09/23 13:49:28;;;;;;;1.60;1.50;;;;;;;;;;6235939;28;20048;-81
2021/09/23 13:52:30;;;;;;;3.92;1.88;;;;;;;;;;6235772;28;20053;-80
2021/09/23 13:55:38;;;;;;;1.73;1.63;;;;;;;;;;6220693;28;20812;-82
2021/09/23 13:58:43;;;;;;;2.30;1.70;;;;;;;;;;6236709;28;20071;-81
2021/09/23 14:01:46;;;;;;;3.75;1.70;;;;;;;;;;6234147;28;20033;-80
2021/09/23 14:04:50;;;;;;;1.80;1.58;;;;;;;;;;6236810;28;20054;-81
2021/09/23 14:07:52;;;;;;;2.00;1.52;;;;;;;;;;6236417;28;20064;-83
2021/09/23 14:10:55;;;;;;;3.72;1.88;;;;;;;;;;6235139;28;20526;-81
2021/09/23 14:14:16;;;;;;;2.47;1.80;;;;;;;;;;6235383;28;20108;-81
2021/09/23 14:17:18;;;;;;;2.10;1.60;;;;;;;;;;6234971;28;20113;-81
2021/09/23 14:20:22;;;;;;;1.50;1.40;;;;;;;;;;6235037;28;20049;-80
2021/09/23 14:23:25;;;;;;;3.60;1.77;;;;;;;;;;6227326;28;20691;-81
2021/09/23 14:26:28;;;;;;;2.25;1.75;;;;;;;;;;6243447;28;20132;-81
2021/09/23 14:29:37;;;;;;;1.67;1.52;;;;;;;;;;6211159;28;20503;-81
2021/09/23 14:32:39;;;;;;;2.28;1.55;;;;;;;;;;6185458;28;20625;-81
2021/09/23 14:35:41;;;;;;;2.13;1.65;;;;;;;;;;6211632;28;20042;-81
2021/09/23 14:38:46;;;;;;;2.03;1.70;;;;;;;;;;6213836;28;20065;-83
2021/09/23 14:41:48;;;;;;;2.50;1.80;;;;;;;;;;6236644;28;20052;-82
2021/09/23 14:44:50;;;;;;;2.28;1.58;;;;;;;;;;6239828;28;20041;-83
2021/09/23 14:47:52;;;;;;;1.50;1.40;;;;;;;;;;6271985;28;20043;-82
2021/09/23 14:50:53;;;;;;;3.77;1.40;;;;;;;;;;6242460;28;20503;-82
2021/09/23 14:53:55;;;;;;;2.90;1.60;;;;;;;;;;6263169;28;20049;-82
2021/09/23 14:56:57;;;;;;;1.80;1.63;;;;;;;;;;6269707;28;20045;-82
2021/09/23 14:59:59;;;;;;;1.67;1.50;;;;;;;;;;6237306;28;20049;-83
2021/09/23 15:03:00;;;;;;;1.87;1.60;;;;;;;;;;6242485;28;20080;-83
2021/09/23 15:06:02;;;;;;;3.22;1.80;;;;;;;;;;6206174;28;20502;-84
2021/09/23 15:09:05;;;;;;;2.20;1.50;;;;;;;;;;6213050;28;20119;-83
2021/09/23 15:12:07;;;;;;;;;;;;;;;;;;6230972;28;20743;-81
2021/09/23 15:15:09;;;;;;;3.00;1.50;;;;;;;;;;6232393;28;19956;-83
2021/09/23 15:18:11;;;;;;;2.17;1.60;;;;;;;;;;6228746;28;20113;-83
2021/09/23 15:21:13;;;;;;;1.92;1.45;;;;;;;;;;6231753;28;20051;-83
2021/09/23 15:24:15;;;;;;;2.80;1.40;;;;;;;;;;6225564;28;20041;-83
2021/09/23 15:27:17;;;;;;;2.20;1.42;;;;;;;;;;6226931;28;20041;-83
2021/09/23 15:30:20;;;;;;;1.60;1.50;;;;;;;;;;6249837;28;20053;-85
2021/09/23 15:33:22;;;;;;;1.80;1.50;;;;;;;;;;6207262;28;20048;-83
2021/09/23 15:36:28;;;;;;;2.53;1.63;;;;;;;;;;6227493;28;20671;-83
2021/09/23 15:39:30;;;;;;;3.42;1.45;;;;;;;;;;6218720;28;20561;-84
2021/09/23 15:42:32;;;;;;;2.10;1.67;;;;;;;;;;6233870;28;20129;-82
2021/09/23 15:45:35;;;;;;;3.37;1.77;;;;;;;;;;6234257;28;20457;-83
2021/09/23 15:48:37;;;;;;;1.98;1.50;;;;;;;;;;6234208;28;20052;-83
2021/09/23 15:51:38;;;;;;;3.80;1.88;;;;;;;;;;6236211;28;20695;-86
2021/09/23 15:54:40;;;;;;;1.90;1.70;;;;;;;;;;6238979;28;20411;-84
2021/09/23 15:57:43;;;;;;;3.70;1.80;;;;;;;;;;6260061;28;20046;-84
2021/09/23 16:00:45;;;;;;;3.70;1.90;;;;;;;;;;6243904;28;20580;-84
2021/09/23 16:03:46;;;;;;;3.25;1.80;;;;;;;;;;6242415;28;20541;-82
2021/09/23 16:06:49;;;;;;;2.20;1.63;;;;;;;;;;6245808;28;20041;-84
2021/09/23 16:09:51;;;;;;;3.05;1.98;;;;;;;;;;6228515;28;21079;-84
2021/09/23 16:12:53;;;;;;;3.50;1.90;;;;;;;;;;6244183;28;20037;-84
2021/09/23 16:15:57;;;;;;;3.25;1.70;;;;;;;;;;6244535;28;20044;-84
2021/09/23 16:19:00;;;;;;;4.00;1.77;;;;;;;;;;6244784;28;20069;-83
2021/09/23 16:22:04;;;;;;;2.13;1.42;;;;;;;;;;6254340;28;20041;-83
2021/09/23 16:25:09;;;;;;;3.63;1.95;;;;;;;;;;6248877;28;20411;-84
2021/09/23 16:28:11;;;;;;;5.82;1.98;;;;;;;;;;6244505;28;20126;-83
2021/09/23 16:31:14;;;;;;;3.50;2.00;;;;;;;;;;6243826;28;20046;-83
2021/09/23 16:34:15;;;;;;;;;;;;;;;;;;6242129;28;20034;-84
2021/09/23 16:37:17;;;;;;;3.53;2.00;;;;;;;;;;6243471;28;19929;-84
2021/09/23 16:40:20;;;;;;;1.80;1.52;;;;;;;;;;6240564;28;20045;-84
2021/09/23 16:43:22;;;;;;;2.88;2.30;;;;;;;;;;6257904;28;20108;-83
2021/09/23 16:46:24;;;;;;;4.13;2.20;;;;;;;;;;6239735;28;20053;-84
2021/09/23 16:49:26;;;;;;;5.20;2.33;;;;;;;;;;6227463;28;20046;-83
2021/09/23 16:52:27;;;;;;;6.65;2.50;;;;;;;;;;6269994;28;20065;-83
2021/09/23 16:55:29;;;;;;;4.85;2.45;;;;;;;;;;6233132;28;20049;-84
2021/09/23 16:58:34;;;;;;;3.67;2.22;;;;;;;;;;6256846;28;20410;-84
2021/09/23 17:01:35;;;;;;;5.63;2.53;;;;;;;;;;6239439;28;20050;-80
2021/09/23 17:04:38;;;;;;;2.60;2.13;;;;;;;;;;6239863;28;20131;-81
2021/09/23 17:07:42;;;;;;;6.50;2.47;;;;;;;;;;6242525;28;20694;-80
2021/09/23 17:10:44;;;;;;;4.82;2.50;;;;;;;;;;6237976;28;20839;-83
2021/09/23 17:13:46;;;;;;;3.72;2.65;;;;;;;;;;6251310;28;20052;-80
2021/09/23 17:16:51;;;;;;;3.25;2.22;;;;;;;;;;6249536;28;20045;-82
2021/09/23 17:19:53;;;;;;;5.30;2.35;;;;;;;;;;6239574;28;20226;-80
2021/09/23 17:22:54;;;;;;;3.10;2.50;;;;;;;;;;6240244;28;20646;-81
2021/09/23 17:25:56;;;;;;;6.38;2.67;;;;;;;;;;6254720;28;20077;-82
2021/09/23 17:28:58;;;;;;;4.30;2.50;;;;;;;;;;6240470;28;20053;-82
2021/09/23 17:31:59;;;;;;;6.28;2.50;;;;;;;;;;6236157;28;20053;-81
2021/09/23 17:35:01;;;;;;;9.00;2.80;;;;;;;;;;6236594;28;20048;-81
2021/09/23 17:38:03;;;;;;;5.35;2.63;;;;;;;;;;6238765;28;20530;-80
2021/09/23 17:41:04;;;;;;;3.58;2.70;;;;;;;;;;6236361;28;20056;-81
2021/09/23 17:44:06;;;;;;;3.85;2.65;;;;;;;;;;6236497;28;20049;-81
2021/09/23 17:47:08;;;;;;;5.22;2.63;;;;;;;;;;6238800;28;20199;-84
2021/09/23 17:50:10;;;;;;;4.93;2.92;;;;;;;;;;6243227;28;20077;-80
2021/09/23 17:53:12;;;;;;;4.72;3.35;;;;;;;;;;6235051;28;20741;-80
2021/09/23 17:56:14;;;;;;;5.97;3.25;;;;;;;;;;6232552;28;20430;-82
2021/09/23 17:59:16;;;;;;;5.25;2.88;;;;;;;;;;6235418;28;20041;-82
2021/09/23 18:02:17;;;;;;;6.28;3.30;;;;;;;;;;6235266;28;20057;-81
2021/09/23 18:05:22;;;;;;;5.50;2.63;;;;;;;;;;6235849;28;20180;-84
2021/09/23 18:08:24;;;;;;;4.63;2.67;;;;;;;;;;6238358;28;20076;-82
2021/09/23 18:11:26;;;;;;;7.53;3.08;;;;;;;;;;6236399;28;20048;-80
2021/09/23 18:14:28;;;;;;;5.57;3.10;;;;;;;;;;6234613;28;20518;-82
2021/09/23 18:17:31;;;;;;;5.75;2.70;;;;;;;;;;6237989;28;20080;-80
2021/09/23 18:20:33;;;;;;;4.82;2.60;;;;;;;;;;6219858;28;20060;-83
2021/09/23 18:23:36;;;;;;;4.35;2.85;;;;;;;;;;6235806;28;20050;-82